AirNav   Air Wisconsin Up To $57,000 Bonus
 
 1167 users online  

58MI Mercy Memorial Hospital Heliport
Monroe, Michigan, USA

GOING TO MONROE?


FAA INFORMATION EFFECTIVE 30 JANUARY 2020

Location

FAA Identifier: 58MI
Lat/Long: 41-55-26.8100N 083-23-20.1900W
41-55.446833N 083-23.336500W
41.9241139,-83.3889417
(estimated)
Elevation: 615 ft. / 187 m (estimated)
Variation: 06W (2000)
From city: 1 mile SW of MONROE, MI
Time zone: UTC -5 (UTC -4 during Daylight Saving Time)
Zip code: 48162

Heliport Operations

Heliport use: Private use, MEDICAL USE.
Activation date: 03/2007
Control tower: no
ARTCC: CLEVELAND CENTER
FSS: LANSING FLIGHT SERVICE STATION
NOTAMs facility: FDC (NOTAM-D service not available)
Attendance: UNATNDD
Wind indicator: yes
Segmented circle: no
Lights: FOR PERIMETER LIGHTS CALL THE EMERGENCY ROOM 734-240-8404 OR RADIO CONTROLLED ON 800 MHZ.

Heliport Communications

WX AWOS-3 at TTF (2.2 nm NW): 119.075 (734-384-0259)
WX AWOS-3 at ONZ (15 nm NE): 119.675 (734-692-9686)
WX AWOS-3 at DUH (16 nm SW): 119.175 (734-856-1563)
WX ASOS at DTW (17 nm N): 133.675 (734-955-5015)
WX ASOS at YIP (20 nm N): 132.35 (734-961-6843)

Nearby radio navigation aids

VOR radial/distance  VOR name  Freq  Var
CRLr161/8.0CARLETON VOR/DME115.7003W
DXOr189/17.4DETROIT VOR/DME113.4006W
SVMr166/30.5SALEM VORTAC114.3003W
VWVr024/30.5WATERVILLE VOR/DME113.1002W
YQGr238/31.7WINDSOR VOR/DME113.8006W

 
NDB name  Hdg/Dist  Freq  Var  ID
GROSSE ILE232/14.941907WRYS .-. -.-- ...
TECUMSEH113/23.123906WTCU - -.-. ..-
ADRIAN090/30.927806WADG .- -.. --.
PORT CLINTON323/33.742307WPCW .--. -.-. .--

Heliport Services

Runway Information

Helipad H1

Dimensions: 40 x 40 ft. / 12 x 12 m
Surface: concrete
Runway edge lights: PERI
PERIMETER LIGHTS MOUNTED ON 6 IN-12 IN CEMENT BASES.
Latitude: 41-55.446833N
Longitude: 083-23.336500W
Elevation: 615.0 ft.
Traffic pattern: leftleft

Heliport Ownership and Management from official FAA records

Ownership: Privately-owned
Owner: MERCY MEMORIAL HOSPITAL CORP.
718 NORTH MACOMB ST
MONROE, MI 48162
Phone 734-240-5201
Manager: RICHARD PAYMENT
718 NORTH MACOMB ST
MONROE, MI 48162
Phone (734) 240-4546

Additional Remarks

FOR CD CTC DETROIT APCH AT 800-499-8181.

Instrument Procedures

There are no published instrument procedures at 58MI.

Some nearby airports with instrument procedures:

KTTF - Custer Airport (2 nm NW)
KONZ - Grosse Ile Municipal Airport (15 nm NE)
KDUH - Toledo Suburban Airport (16 nm SW)
KDTW - Detroit Metropolitan Wayne County Airport (17 nm N)
KYIP - Willow Run Airport (20 nm N)
 
Loc | Ops | Rwys | IFR | FBO | Links
Com | Nav | Svcs | Stats | Notes
Area around 58MI (Mercy Memorial Hospital Heliport)
 
Road maps at: MapQuest Bing Google
 
Aerial photo
No photo
 
Sectional chart

 
Airport distance calculator
Flying to Mercy Memorial Hospital Heliport? Find the distance to fly.

From to 58MI

Sunrise and sunset
Times for 19-Feb-2020
 Local
(UTC-5)
 Zulu
(UTC)
Morning civil twilight06:5611:56
Sunrise07:2512:25
Sunset18:1023:10
Evening civil twilight18:3923:39

Current date and time
Zulu (UTC)  19-Feb-2020 14:16:22
Local (UTC-5)  19-Feb-2020 09:16:22
 
METAR
KTTF 191356Z AUTO 31010G15KT 10SM CLR M05/M13 A3049 RMK AO2 T10471131
KONZ 
15nm NE 
191355Z AUTO 32011KT 10SM CLR M04/M11 A3049 RMK AO2 T10441111
KDUH 
16nm SW 
191355Z AUTO 33008KT 10SM CLR M04/M10 A3051 RMK AO2 T10431104
KDTW 
19nm N 
191353Z 31012KT 10SM FEW030 FEW220 M06/M13 A3049 RMK AO2 SLP336 T10561133
KYIP 
20nm N 
191353Z 33013G19KT 10SM CLR M05/M13 A3050 RMK AO2 SLP335 T10501133
TAF
KDTW 
19nm N 
191135Z 1912/2018 30013KT P6SM SCT040 FM200100 33007KT P6SM OVC100 FM201300 35005KT P6SM SCT040
KYIP 
20nm N 
190535Z 1906/2006 28009KT P6SM SKC FM190700 29010KT P6SM SCT028 BKN035 FM191200 28010KT P6SM SKC FM200000 27008KT P6SM SCT100 BKN250
NOTAMs
Click for the latest NOTAMs
NOTAMs are issued by the DoD/FAA and will open in a separate window not controlled by AirNav.

 

 
 

Would you like to see your business listed on this page?

 If your business provides an interesting product or service to pilots, flight crews, aircraft, or users of the Mercy Memorial Hospital Heliport, you should consider listing it here.  To start the listing process, click on the button below
 
Add a business
 

Other Pages about Mercy Memorial Hospital Heliport

Update a link
 
Copyright © AirNav, LLC. All rights reserved. Privacy Policy  Contact